Terminal Aerodrome Forecast
Issued by NWS

Home | Current Version | Previous Version | Text Only | Print | Product List | Glossary On
Versions: 1 2 3 4 5 6 7 8 9 10 11 12 13 14 15 16 17 18 19 20 21
484
FTUS46 KSEW 261132
TAFPAE
TAF
KPAE 261132Z 2612/2712 14009KT 5SM -SHSN SCT004 OVC015
      TEMPO 2612/2616 1SM -SHSN BR OVC004
     FM261900 06008KT P6SM VCSH OVC025
     FM262200 01010KT P6SM VCSH BKN035
     FM270200 02008KT P6SM SCT040
     FM271100 06005KT P6SM BKN030=

USA.gov is the U.S. government's official web portal to all federal, state and local government web resources and services.